Hines Creek, Canada
Current Conditions -  °F | °C
As of 9:00 PM on Sunday 21 Dec 2014 (Local Time) from CYPE Reporting Station
Few Clouds Few Clouds  
Wind Chill: -6°   Ceiling: Unl
Heat Index:   Visibility: 15mi
Dew Point:   Wind: 5mph
Humidity: 92%   Direction: 10°N
Pressure: 29.59"   Gusts: NA
Location:  56.23°N, 118.6°W
Report Text: CYPE 220400Z 01004KT 15SM FEW200 M16/M17 A2959 RMK CI2 SLP066
Loading
Personal Weather Stations






























Interactive Weather Map New forecast layout! Learn more

10-Day Weather Forecast

Advertisements
Track Severe Weather on mobile